Time;durP1;ratioP1;P1;durP2;ratioP2;P2;SDS_P1;SDS_P2;PMS_P1;PMS_P2;Temp;Humidity;BMP_temperature;BMP_pressure;BME280_temperature;BME280_humidity;BME280_pressure;Samples;Min_cycle;Max_cycle;Signal;HPM_P1;HPM_P2
2022/06/27 00:00:49;;;;;;;;;;;29.00;43.00;;;;;;5097561;28;1898;-43
2022/06/27 00:03:16;;;;;;;;;;;29.00;43.00;;;;;;5098406;28;1042;-43
2022/06/27 00:05:43;;;;;;;;;;;29.00;43.30;;;;;;5098477;28;876;-43
2022/06/27 00:08:11;;;;;;;;;;;29.00;43.10;;;;;;5098827;28;991;-43
2022/06/27 00:10:38;;;;;;;;;;;29.00;43.00;;;;;;5098826;28;936;-43
2022/06/27 00:13:05;;;;;;;;;;;29.00;43.00;;;;;;5099472;28;936;-43
2022/06/27 00:15:32;;;;;;;;;;;29.00;43.00;;;;;;5098706;28;939;-42
2022/06/27 00:17:58;;;;;;;;;;;29.00;43.00;;;;;;5096260;28;1148;-43
2022/06/27 00:20:25;;;;;;;;;;;29.00;43.30;;;;;;5098096;28;1897;-43
2022/06/27 00:22:52;;;;;;;;;;;29.00;43.20;;;;;;5097824;28;1003;-43
2022/06/27 00:25:20;;;;;;;;;;;29.00;43.10;;;;;;5099206;28;1047;-43
2022/06/27 00:27:47;;;;;;;;;;;29.00;43.20;;;;;;5098192;28;985;-43
2022/06/27 00:30:14;;;;;;;;;;;29.00;43.20;;;;;;5098724;28;992;-44
2022/06/27 00:32:40;;;;;;;;;;;29.10;43.20;;;;;;5098753;28;1007;-43
2022/06/27 00:35:08;;;;;;;;;;;29.10;43.00;;;;;;5099437;28;877;-43
2022/06/27 00:37:35;;;;;;;;;;;29.10;43.10;;;;;;5099157;28;956;-43
2022/06/27 00:40:01;;;;;;;;;;;29.10;43.20;;;;;;5099187;28;1983;-43
2022/06/27 00:42:30;;;;;;;;;;;29.10;43.30;;;;;;5098991;28;985;-43
2022/06/27 00:44:56;;;;;;;;;;;29.10;43.20;;;;;;5098125;28;965;-43
2022/06/27 00:47:23;;;;;;;;;;;29.00;43.40;;;;;;5098559;28;996;-43
2022/06/27 00:49:50;;;;;;;;;;;29.00;43.30;;;;;;5098720;28;990;-43
2022/06/27 00:52:17;;;;;;;;;;;29.10;43.40;;;;;;5098504;28;1007;-44
2022/06/27 00:54:46;;;;;;;;;;;29.00;43.20;;;;;;5099013;28;1029;-43
2022/06/27 00:57:15;;;;;;;;;;;29.10;43.20;;;;;;5098793;28;981;-43
2022/06/27 00:59:43;;;;;;;;;;;29.00;43.20;;;;;;5099264;28;1125;-43
2022/06/27 01:02:10;;;;;;;;;;;29.00;43.10;;;;;;5099093;28;1978;-43
2022/06/27 01:04:37;;;;;;;;;;;29.10;43.30;;;;;;5099233;28;1008;-43
2022/06/27 01:07:05;;;;;;;;;;;29.00;43.40;;;;;;5098290;28;971;-42
2022/06/27 01:09:32;;;;;;;;;;;29.00;43.20;;;;;;5098929;28;1004;-43
2022/06/27 01:11:58;;;;;;;;;;;29.00;43.30;;;;;;5098787;28;972;-43
2022/06/27 01:14:25;;;;;;;;;;;29.00;43.30;;;;;;5098507;28;987;-43
2022/06/27 01:16:54;;;;;;;;;;;29.00;43.30;;;;;;5098828;28;1083;-43
2022/06/27 01:19:21;;;;;;;;;;;29.00;43.30;;;;;;5098147;28;1236;-44
2022/06/27 01:21:49;;;;;;;;;;;29.00;43.40;;;;;;5097714;28;1968;-43
2022/06/27 01:24:18;;;;;;;;;;;29.00;43.30;;;;;;5098346;28;1086;-42
2022/06/27 01:26:45;;;;;;;;;;;29.00;43.30;;;;;;5098144;28;986;-42
2022/06/27 01:29:12;;;;;;;;;;;29.00;43.20;;;;;;5099043;28;1026;-42
2022/06/27 01:31:39;;;;;;;;;;;29.00;43.40;;;;;;5098389;28;948;-43
2022/06/27 01:34:06;;;;;;;;;;;29.00;43.30;;;;;;5098730;28;1024;-43
2022/06/27 01:36:42;;;;;;;;;;;29.00;43.30;;;;;;5098289;28;1016;-43
2022/06/27 01:39:09;;;;;;;;;;;29.10;43.30;;;;;;5098879;28;988;-43
2022/06/27 01:41:37;;;;;;;;;;;29.00;43.30;;;;;;5102374;28;1894;-44
2022/06/27 01:44:04;;;;;;;;;;;29.00;43.40;;;;;;5102418;28;968;-44
2022/06/27 01:46:38;;;;;;;;;;;29.10;43.40;;;;;;5102361;28;864;-43
2022/06/27 01:49:05;;;;;;;;;;;29.00;43.40;;;;;;5102592;28;1882;-43
2022/06/27 01:51:32;;;;;;;;;;;29.00;43.40;;;;;;5102060;28;928;-43
2022/06/27 01:53:58;;;;;;;;;;;29.10;43.40;;;;;;5102392;28;967;-43
2022/06/27 01:56:25;;;;;;;;;;;29.10;43.40;;;;;;5102695;28;937;-43
2022/06/27 01:58:57;;;;;;;;;;;29.00;43.40;;;;;;5101942;28;917;-43
2022/06/27 02:01:24;;;;;;;;;;;29.10;43.30;;;;;;5102052;28;1983;-43
2022/06/27 02:03:51;;;;;;;;;;;29.00;43.30;;;;;;5102145;28;965;-40
2022/06/27 02:06:18;;;;;;;;;;;29.00;43.30;;;;;;5101465;28;976;-40
2022/06/27 02:08:46;;;;;;;;;;;29.00;43.40;;;;;;5101916;28;940;-40
2022/06/27 02:11:12;;;;;;;;;;;29.10;43.40;;;;;;5101270;28;1007;-40
2022/06/27 02:13:39;;;;;;;;;;;29.10;43.40;;;;;;5101525;28;935;-39
2022/06/27 02:16:09;;;;;;;;;;;29.00;43.40;;;;;;5101517;28;980;-40
2022/06/27 02:18:36;;;;;;;;;;;29.00;43.30;;;;;;5101608;28;1161;-40
2022/06/27 02:21:03;;;;;;;;;;;29.00;43.20;;;;;;5101312;28;1902;-40
2022/06/27 02:23:30;;;;;;;;;;;29.10;43.30;;;;;;5101312;28;1014;-40
2022/06/27 02:25:57;;;;;;;;;;;29.00;43.20;;;;;;5101258;28;979;-41
2022/06/27 02:28:26;;;;;;;;;;;29.10;43.20;;;;;;5100999;28;1019;-41
2022/06/27 02:30:54;;;;;;;;;;;29.10;43.40;;;;;;5101006;28;943;-41
2022/06/27 02:33:22;;;;;;;;;;;29.10;43.40;;;;;;5101220;28;1027;-40
2022/06/27 02:35:50;;;;;;;;;;;29.10;43.40;;;;;;5100954;28;1047;-41
2022/06/27 02:38:17;;;;;;;;;;;29.10;43.20;;;;;;5101042;28;960;-42
2022/06/27 02:40:45;;;;;;;;;;;29.00;43.30;;;;;;5100528;28;1905;-41
2022/06/27 02:43:13;;;;;;;;;;;29.00;43.20;;;;;;5100577;28;1008;-41
2022/06/27 02:45:41;;;;;;;;;;;29.10;43.20;;;;;;5100325;28;1038;-41
2022/06/27 02:48:08;;;;;;;;;;;29.10;43.40;;;;;;5100562;28;1008;-42
2022/06/27 02:50:38;;;;;;;;;;;29.10;43.40;;;;;;5099220;28;1006;-41
2022/06/27 02:56:10;;;;;;;;;;;29.10;43.30;;;;;;5099771;28;639;-41
2022/06/27 02:58:39;;;;;;;;;;;29.10;43.20;;;;;;5099849;28;1014;-41
2022/06/27 03:01:06;;;;;;;;;;;29.10;43.30;;;;;;5099635;28;1973;-42
2022/06/27 03:03:33;;;;;;;;;;;29.10;43.20;;;;;;5099785;28;1014;-41
2022/06/27 03:06:02;;;;;;;;;;;29.10;43.20;;;;;;5099625;28;933;-41
2022/06/27 03:08:36;;;;;;;;;;;29.10;43.10;;;;;;5098900;28;957;-42
2022/06/27 03:11:03;;;;;;;;;;;29.10;43.20;;;;;;5098835;28;849;-41
2022/06/27 03:13:30;;;;;;;;;;;29.10;43.20;;;;;;5098806;28;1020;-41
2022/06/27 03:15:56;;;;;;;;;;;29.10;43.20;;;;;;5098803;28;1051;-42
2022/06/27 03:18:23;;;;;;;;;;;29.10;43.20;;;;;;5098963;28;1108;-41
2022/06/27 03:20:50;;;;;;;;;;;29.10;43.20;;;;;;5099019;28;1976;-42
2022/06/27 03:23:18;;;;;;;;;;;29.10;43.20;;;;;;5099965;28;943;-42
2022/06/27 03:25:45;;;;;;;;;;;29.10;43.20;;;;;;5099986;28;968;-42
2022/06/27 03:28:12;;;;;;;;;;;29.10;43.20;;;;;;5099211;28;971;-42
2022/06/27 03:30:39;;;;;;;;;;;29.10;43.20;;;;;;5099666;28;884;-42
2022/06/27 03:33:05;;;;;;;;;;;29.10;43.20;;;;;;5099451;28;1043;-41
2022/06/27 03:35:32;;;;;;;;;;;29.10;43.00;;;;;;5098725;28;994;-42
2022/06/27 03:37:59;;;;;;;;;;;29.10;43.00;;;;;;5098388;28;933;-42
2022/06/27 03:40:27;;;;;;;;;;;29.10;43.20;;;;;;5098567;28;1206;-41
2022/06/27 03:42:54;;;;;;;;;;;29.10;43.10;;;;;;5098585;28;1906;-42
2022/06/27 03:45:20;;;;;;;;;;;29.10;43.10;;;;;;5098700;28;935;-42
2022/06/27 03:47:48;;;;;;;;;;;29.10;43.10;;;;;;5098852;28;1015;-42
2022/06/27 03:50:14;;;;;;;;;;;29.10;43.10;;;;;;5098594;28;973;-42
2022/06/27 03:52:41;;;;;;;;;;;29.20;43.10;;;;;;5098890;28;928;-42
2022/06/27 03:55:08;;;;;;;;;;;29.10;43.10;;;;;;5098717;28;912;-41
2022/06/27 03:57:37;;;;;;;;;;;29.10;43.10;;;;;;5098811;28;1015;-42
2022/06/27 04:00:04;;;;;;;;;;;29.10;43.00;;;;;;5099506;28;956;-41
2022/06/27 04:02:31;;;;;;;;;;;29.10;43.10;;;;;;5098369;28;1993;-42
2022/06/27 04:04:57;;;;;;;;;;;29.10;43.20;;;;;;5099327;28;995;-41
2022/06/27 04:07:24;;;;;;;;;;;29.10;43.10;;;;;;5099325;28;1003;-43
2022/06/27 04:09:51;;;;;;;;;;;29.20;43.10;;;;;;5099376;28;978;-43
2022/06/27 04:12:18;;;;;;;;;;;29.10;43.00;;;;;;5098493;28;999;-43
2022/06/27 04:14:46;;;;;;;;;;;29.10;43.00;;;;;;5098764;28;931;-43
2022/06/27 04:17:12;;;;;;;;;;;29.10;43.00;;;;;;5098775;28;1007;-43
2022/06/27 04:19:39;;;;;;;;;;;29.10;43.00;;;;;;5098940;28;1241;-43
2022/06/27 04:22:08;;;;;;;;;;;29.10;43.00;;;;;;5096651;28;1910;-43
2022/06/27 04:24:35;;;;;;;;;;;29.10;43.00;;;;;;5097025;28;1393;-43
2022/06/27 04:27:02;;;;;;;;;;;29.10;43.00;;;;;;5096031;28;964;-43
2022/06/27 04:29:30;;;;;;;;;;;29.10;43.00;;;;;;5096130;28;1003;-43
2022/06/27 04:31:58;;;;;;;;;;;29.10;43.00;;;;;;5096756;28;936;-43
2022/06/27 04:34:24;;;;;;;;;;;29.20;43.10;;;;;;5096913;28;1025;-43
2022/06/27 04:36:51;;;;;;;;;;;29.10;43.00;;;;;;5097322;28;927;-43
2022/06/27 04:39:20;;;;;;;;;;;29.10;42.90;;;;;;5097374;28;1110;-43
2022/06/27 04:41:47;;;;;;;;;;;29.10;43.00;;;;;;5097911;28;1989;-43
2022/06/27 04:44:14;;;;;;;;;;;29.10;43.00;;;;;;5098592;28;1009;-43
2022/06/27 04:46:41;;;;;;;;;;;29.20;43.00;;;;;;5098487;28;1003;-43
2022/06/27 04:49:10;;;;;;;;;;;29.10;43.00;;;;;;5097222;28;940;-43
2022/06/27 04:51:37;;;;;;;;;;;29.20;43.00;;;;;;5097271;28;928;-43
2022/06/27 04:54:04;;;;;;;;;;;29.10;42.90;;;;;;5086088;28;1045;-43
2022/06/27 04:56:32;;;;;;;;;;;29.10;43.00;;;;;;5054956;28;1004;-43
2022/06/27 04:58:58;;;;;;;;;;;29.10;43.00;;;;;;5074350;28;873;-43
2022/06/27 05:01:25;;;;;;;;;;;29.10;43.00;;;;;;5097280;28;1980;-43
2022/06/27 05:03:52;;;;;;;;;;;29.20;43.10;;;;;;5098216;28;956;-43
2022/06/27 05:06:20;;;;;;;;;;;29.10;43.00;;;;;;5096830;28;1030;-43
2022/06/27 05:08:47;;;;;;;;;;;29.10;43.00;;;;;;5097417;28;980;-43
2022/06/27 05:11:14;;;;;;;;;;;29.10;43.00;;;;;;5097270;28;1015;-42
2022/06/27 05:13:40;;;;;;;;;;;29.10;43.00;;;;;;5096386;28;1046;-43
2022/06/27 05:16:07;;;;;;;;;;;29.10;43.00;;;;;;5096354;28;923;-44
2022/06/27 05:18:34;;;;;;;;;;;29.10;43.00;;;;;;5096280;28;1075;-43
2022/06/27 05:21:01;;;;;;;;;;;29.10;43.00;;;;;;5096611;28;936;-43
2022/06/27 05:23:29;;;;;;;;;;;29.10;42.90;;;;;;5096056;28;1902;-43
2022/06/27 05:25:56;;;;;;;;;;;29.20;43.00;;;;;;5095618;28;967;-43
2022/06/27 05:28:22;;;;;;;;;;;29.20;42.90;;;;;;5095050;28;1103;-43
2022/06/27 05:30:49;;;;;;;;;;;29.20;42.90;;;;;;5095742;28;1034;-43
2022/06/27 05:33:16;;;;;;;;;;;29.20;43.00;;;;;;5095493;28;1002;-43
2022/06/27 05:35:43;;;;;;;;;;;29.20;43.00;;;;;;5094995;28;980;-43
2022/06/27 05:38:10;;;;;;;;;;;29.20;42.90;;;;;;5095287;28;989;-43
2022/06/27 05:40:38;;;;;;;;;;;29.20;42.90;;;;;;5096074;28;844;-43
2022/06/27 05:43:05;;;;;;;;;;;29.20;42.90;;;;;;5094772;28;1911;-43
2022/06/27 05:45:32;;;;;;;;;;;29.20;43.00;;;;;;5094814;28;956;-43
2022/06/27 05:47:59;;;;;;;;;;;29.20;42.90;;;;;;5094222;28;993;-43
2022/06/27 05:50:27;;;;;;;;;;;29.20;43.00;;;;;;5095271;28;992;-43
2022/06/27 05:52:56;;;;;;;;;;;29.20;43.00;;;;;;5095127;28;967;-43
2022/06/27 05:55:23;;;;;;;;;;;29.20;42.90;;;;;;5094785;28;1019;-43
2022/06/27 05:57:52;;;;;;;;;;;29.20;43.00;;;;;;5094658;28;1015;-43
2022/06/27 06:00:19;;;;;;;;;;;29.20;43.00;;;;;;5096390;28;928;-43
2022/06/27 06:02:46;;;;;;;;;;;29.20;43.00;;;;;;5096193;28;1995;-43
2022/06/27 06:05:14;;;;;;;;;;;29.20;42.90;;;;;;5095784;28;1038;-43
2022/06/27 06:07:42;;;;;;;;;;;29.20;42.90;;;;;;5095576;28;952;-43
2022/06/27 06:10:09;;;;;;;;;;;29.20;42.90;;;;;;5095614;28;1004;-43
2022/06/27 06:12:36;;;;;;;;;;;29.20;42.90;;;;;;5096037;28;958;-43
2022/06/27 06:15:05;;;;;;;;;;;29.20;42.90;;;;;;5096066;28;957;-42
2022/06/27 06:17:33;;;;;;;;;;;29.20;42.90;;;;;;5095553;28;991;-43
2022/06/27 06:20:00;;;;;;;;;;;29.20;42.90;;;;;;5096182;28;1039;-43
2022/06/27 06:22:27;;;;;;;;;;;29.20;42.90;;;;;;5094886;28;1985;-44
2022/06/27 06:24:54;;;;;;;;;;;29.20;42.80;;;;;;5093802;28;1030;-43
2022/06/27 06:27:21;;;;;;;;;;;29.20;42.80;;;;;;5096993;28;986;-43
2022/06/27 06:29:47;;;;;;;;;;;29.20;42.90;;;;;;5097985;28;945;-43
2022/06/27 06:32:16;;;;;;;;;;;29.20;42.90;;;;;;5098645;28;1019;-43
2022/06/27 06:34:43;;;;;;;;;;;29.30;42.90;;;;;;5098298;28;1157;-43
2022/06/27 06:37:10;;;;;;;;;;;29.30;42.90;;;;;;5098452;28;956;-43
2022/06/27 06:39:37;;;;;;;;;;;29.20;42.80;;;;;;5098057;28;1115;-43
2022/06/27 06:42:05;;;;;;;;;;;29.30;42.90;;;;;;5096409;28;1983;-43
2022/06/27 06:44:31;;;;;;;;;;;29.30;42.90;;;;;;5096824;28;1123;-43
2022/06/27 06:46:58;;;;;;;;;;;29.20;42.90;;;;;;5096459;28;1062;-43
2022/06/27 06:49:26;;;;;;;;;;;29.30;43.00;;;;;;5096279;28;1432;-43
2022/06/27 06:51:53;;;;;;;;;;;29.20;42.90;;;;;;5096397;28;1016;-43
2022/06/27 06:54:20;;;;;;;;;;;29.20;42.90;;;;;;5097006;28;1011;-43
2022/06/27 06:56:49;;;;;;;;;;;29.20;43.00;;;;;;5097315;28;1020;-44
2022/06/27 06:59:17;;;;;;;;;;;29.30;43.00;;;;;;5097305;28;996;-43
2022/06/27 07:01:46;;;;;;;;;;;29.30;43.00;;;;;;5095829;28;1980;-43
2022/06/27 07:04:14;;;;;;;;;;;29.30;42.90;;;;;;5095946;28;892;-44
2022/06/27 07:06:42;;;;;;;;;;;29.30;42.90;;;;;;5096586;28;963;-44
2022/06/27 07:09:08;;;;;;;;;;;29.30;44.00;;;;;;5096189;28;999;-43
2022/06/27 07:11:37;;;;;;;;;;;29.30;42.80;;;;;;5095945;28;960;-43
2022/06/27 07:14:04;;;;;;;;;;;29.30;42.90;;;;;;5097017;28;1023;-43
2022/06/27 07:16:31;;;;;;;;;;;29.30;42.90;;;;;;5096516;28;939;-43
2022/06/27 07:19:00;;;;;;;;;;;29.30;42.90;;;;;;5095499;28;1118;-43
2022/06/27 07:21:31;;;;;;;;;;;29.30;42.90;;;;;;5097115;28;921;-44
2022/06/27 07:24:00;;;;;;;;;;;29.30;42.90;;;;;;5096372;28;1906;-44
2022/06/27 07:26:28;;;;;;;;;;;29.30;42.80;;;;;;5095930;28;1207;-43
2022/06/27 07:28:55;;;;;;;;;;;29.30;42.80;;;;;;5095483;28;980;-43
2022/06/27 07:31:22;;;;;;;;;;;29.30;42.90;;;;;;5096761;28;912;-44
2022/06/27 07:33:51;;;;;;;;;;;29.30;42.90;;;;;;5096774;28;929;-43
2022/06/27 07:36:19;;;;;;;;;;;29.30;42.90;;;;;;5096263;28;1171;-43
2022/06/27 07:38:47;;;;;;;;;;;29.30;42.90;;;;;;5095986;28;932;-43
2022/06/27 07:41:16;;;;;;;;;;;29.30;42.90;;;;;;5095877;28;1019;-44
2022/06/27 07:43:44;;;;;;;;;;;29.30;42.90;;;;;;5095900;28;1910;-43
2022/06/27 07:46:10;;;;;;;;;;;29.30;44.10;;;;;;5095818;28;1000;-43
2022/06/27 07:48:38;;;;;;;;;;;29.30;42.90;;;;;;5095902;28;1020;-43
2022/06/27 07:51:04;;;;;;;;;;;29.30;42.80;;;;;;5095908;28;976;-43
2022/06/27 07:53:32;;;;;;;;;;;29.30;42.80;;;;;;5095496;28;1018;-43
2022/06/27 07:55:59;;;;;;;;;;;29.40;42.70;;;;;;5095474;28;825;-43
2022/06/27 07:58:32;;;;;;;;;;;29.30;42.90;;;;;;5094410;28;1017;-44
2022/06/27 08:01:00;;;;;;;;;;;29.30;42.90;;;;;;5095551;28;997;-43
2022/06/27 08:06:18;;;;;;;;;;;29.30;42.90;;;;;;5075555;28;1160;-43
2022/06/27 08:08:46;;;;;;;;;;;29.30;42.90;;;;;;5094937;28;956;-43
2022/06/27 08:11:14;;;;;;;;;;;29.30;42.90;;;;;;5093219;28;980;-43
2022/06/27 08:13:43;;;;;;;;;;;29.30;42.70;;;;;;5097064;28;932;-43
2022/06/27 08:16:14;;;;;;;;;;;29.40;42.70;;;;;;5097115;28;991;-43
2022/06/27 08:18:43;;;;;;;;;;;29.40;42.80;;;;;;5096091;28;1100;-43
2022/06/27 08:21:10;;;;;;;;;;;29.40;42.80;;;;;;5096406;28;972;-43
2022/06/27 08:23:37;;;;;;;;;;;29.40;42.70;;;;;;5096443;28;1973;-43
2022/06/27 08:26:06;;;;;;;;;;;29.40;42.80;;;;;;5089469;28;976;-43
2022/06/27 08:28:33;;;;;;;;;;;29.40;42.80;;;;;;5089560;28;984;-44
2022/06/27 08:31:01;;;;;;;;;;;29.40;42.80;;;;;;5096282;28;952;-44
2022/06/27 08:33:30;;;;;;;;;;;29.40;42.70;;;;;;5094704;28;1003;-43
2022/06/27 08:35:57;;;;;;;;;;;29.40;42.80;;;;;;5098033;28;1140;-43
2022/06/27 08:38:24;;;;;;;;;;;29.40;42.90;;;;;;5097191;28;968;-43
2022/06/27 08:40:53;;;;;;;;;;;29.40;42.80;;;;;;5094481;28;929;-43
2022/06/27 08:43:19;;;;;;;;;;;29.40;42.90;;;;;;5095451;28;1955;-44
2022/06/27 08:45:47;;;;;;;;;;;29.40;42.80;;;;;;5095151;28;932;-43
2022/06/27 08:48:16;;;;;;;;;;;29.40;42.90;;;;;;5094590;28;946;-43
2022/06/27 08:50:44;;;;;;;;;;;29.40;44.00;;;;;;5093319;28;944;-43
2022/06/27 08:53:13;;;;;;;;;;;29.40;42.90;;;;;;5094054;28;989;-43
2022/06/27 08:55:43;;;;;;;;;;;29.40;42.90;;;;;;5094294;28;964;-43
2022/06/27 08:58:11;;;;;;;;;;;29.40;42.90;;;;;;5094640;28;1023;-43
2022/06/27 09:00:40;;;;;;;;;;;29.40;42.90;;;;;;5096195;28;1380;-44
2022/06/27 09:03:08;;;;;;;;;;;29.30;42.80;;;;;;5095742;28;1898;-43
2022/06/27 09:05:37;;;;;;;;;;;29.40;43.00;;;;;;5097273;28;1412;-43
2022/06/27 09:08:05;;;;;;;;;;;29.40;42.90;;;;;;5096370;28;974;-43
2022/06/27 09:10:32;;;;;;;;;;;29.40;42.90;;;;;;5095976;28;1445;-44
2022/06/27 09:13:00;;;;;;;;;;;29.40;42.90;;;;;;5095234;28;908;-43
2022/06/27 09:15:44;;;;;;;;;;;29.40;42.80;;;;;;5095913;28;998;-44
2022/06/27 09:18:12;;;;;;;;;;;29.40;42.80;;;;;;5095457;28;1245;-44
2022/06/27 09:20:49;;;;;;;;;;;29.40;42.80;;;;;;5095564;28;1047;-44
2022/06/27 09:23:29;;;;;;;;;;;29.40;42.80;;;;;;5096385;28;1922;-43
2022/06/27 09:26:00;;;;;;;;;;;29.40;42.90;;;;;;5095741;28;1784;-43
2022/06/27 09:28:37;;;;;;;;;;;29.40;42.90;;;;;;5096535;28;984;-44
2022/06/27 09:31:04;;;;;;;;;;;29.40;42.80;;;;;;5093645;28;1015;-43
2022/06/27 09:33:32;;;;;;;;;;;29.40;42.80;;;;;;5093969;28;996;-42
2022/06/27 09:36:08;;;;;;;;;;;29.40;42.80;;;;;;5093972;28;988;-43
2022/06/27 09:38:35;;;;;;;;;;;29.40;42.80;;;;;;5094295;28;1077;-43
2022/06/27 09:41:02;;;;;;;;;;;29.30;42.80;;;;;;5093638;28;1020;-42
2022/06/27 09:43:30;;;;;;;;;;;29.40;42.90;;;;;;5094062;28;1914;-42
2022/06/27 09:45:58;;;;;;;;;;;29.40;42.90;;;;;;5094152;28;865;-36
2022/06/27 09:48:26;;;;;;;;;;;29.60;42.80;;;;;;5094706;28;994;-34
2022/06/27 09:50:53;;;;;;;;;;;29.60;42.70;;;;;;5093538;28;951;-34
2022/06/27 09:53:26;;;;;;;;;;;29.60;42.40;;;;;;5092570;28;1897;-34
2022/06/27 09:55:54;;;;;;;;;;;29.60;43.70;;;;;;5093764;28;1095;-35
2022/06/27 09:58:22;;;;;;;;;;;29.60;42.70;;;;;;5094016;28;873;-35
2022/06/27 10:00:49;;;;;;;;;;;29.60;42.50;;;;;;5094358;28;1017;-35
2022/06/27 10:03:17;;;;;;;;;;;29.60;42.50;;;;;;5097647;28;1975;-37
2022/06/27 10:05:45;;;;;;;;;;;29.70;42.40;;;;;;5096091;28;2538;-37
2022/06/27 10:08:13;;;;;;;;;;;29.70;42.20;;;;;;5096084;28;1617;-35
2022/06/27 10:11:08;;;;;;;;;;;29.70;42.30;;;;;;5092799;28;1015;-35
2022/06/27 10:13:38;;;;;;;;;;;29.70;42.30;;;;;;5098176;28;1057;-37
2022/06/27 10:16:12;;;;;;;;;;;29.70;42.20;;;;;;5095970;28;865;-36
2022/06/27 10:18:54;;;;;;;;;;;29.60;42.40;;;;;;5096600;28;1148;-37
2022/06/27 10:21:25;;;;;;;;;;;29.50;42.60;;;;;;5097342;28;984;-37
2022/06/27 10:24:07;;;;;;;;;;;29.60;42.40;;;;;;5097488;28;1976;-38
2022/06/27 10:26:41;;;;;;;;;;;29.60;42.40;;;;;;5097986;28;1349;-37
2022/06/27 10:29:23;;;;;;;;;;;29.70;42.40;;;;;;5098720;28;988;-37
2022/06/27 10:31:51;;;;;;;;;;;29.60;42.40;;;;;;5056093;28;1182;-37
2022/06/27 10:34:19;;;;;;;;;;;29.60;42.90;;;;;;5075806;28;1152;-37
2022/06/27 10:36:47;;;;;;;;;;;29.40;42.80;;;;;;5075407;28;1015;-37
2022/06/27 10:39:19;;;;;;;;;;;29.60;42.50;;;;;;5072883;28;1005;-37
2022/06/27 10:41:46;;;;;;;;;;;29.70;42.60;;;;;;5091855;28;885;-36
2022/06/27 10:44:30;;;;;;;;;;;29.70;42.90;;;;;;5098028;28;1985;-36
2022/06/27 10:47:00;;;;;;;;;;;29.80;42.80;;;;;;5098264;28;1947;-35
2022/06/27 10:49:28;;;;;;;;;;;29.60;42.90;;;;;;5096883;28;1247;-35
2022/06/27 10:52:14;;;;;;;;;;;29.70;42.80;;;;;;5097918;28;999;-35
2022/06/27 10:54:42;;;;;;;;;;;29.70;43.00;;;;;;5098877;28;1034;-37
2022/06/27 10:57:11;;;;;;;;;;;29.60;42.90;;;;;;5099218;28;1454;-35
2022/06/27 11:00:04;;;;;;;;;;;29.70;43.00;;;;;;5098676;28;1004;-35
2022/06/27 11:02:33;;;;;;;;;;;29.70;43.10;;;;;;5098460;28;1449;-35
2022/06/27 11:05:01;;;;;;;;;;;29.60;43.00;;;;;;5096278;28;1910;-34
2022/06/27 11:07:28;;;;;;;;;;;29.60;43.20;;;;;;5098259;28;1035;-34
2022/06/27 11:09:55;;;;;;;;;;;29.60;43.20;;;;;;5098203;28;944;-34
2022/06/27 11:12:24;;;;;;;;;;;29.50;43.30;;;;;;5096605;28;1760;-35
2022/06/27 11:14:52;;;;;;;;;;;29.50;43.20;;;;;;5097377;28;1072;-34
2022/06/27 11:17:42;;;;;;;;;;;29.50;43.10;;;;;;5095000;28;988;-34
2022/06/27 11:20:29;;;;;;;;;;;29.50;43.20;;;;;;5074500;28;1196;-34
2022/06/27 11:22:58;;;;;;;;;;;29.60;43.10;;;;;;5097140;28;1000;-35
2022/06/27 11:25:27;;;;;;;;;;;29.70;43.10;;;;;;5098055;28;1998;-34
2022/06/27 11:27:55;;;;;;;;;;;29.50;43.20;;;;;;5096648;28;1003;-34
2022/06/27 11:33:24;;;;;;;;;;;29.60;43.30;;;;;;5096494;28;876;-34
2022/06/27 11:35:52;;;;;;;;;;;29.60;43.20;;;;;;5097598;28;1584;-35
2022/06/27 11:38:28;;;;;;;;;;;29.60;43.30;;;;;;5097950;28;920;-35
2022/06/27 11:41:05;;;;;;;;;;;29.60;43.40;;;;;;5097815;28;1022;-34
2022/06/27 11:43:56;;;;;;;;;;;29.60;43.40;;;;;;5097236;28;1890;-34
2022/06/27 11:46:26;;;;;;;;;;;29.60;43.30;;;;;;5096757;28;1000;-34
2022/06/27 11:48:58;;;;;;;;;;;29.60;43.30;;;;;;5097882;28;919;-34
2022/06/27 11:51:26;;;;;;;;;;;29.70;43.20;;;;;;5096699;28;944;-34
2022/06/27 11:53:57;;;;;;;;;;;29.60;43.10;;;;;;5096965;28;984;-34
2022/06/27 11:56:24;;;;;;;;;;;29.60;43.20;;;;;;5098073;28;952;-34
2022/06/27 11:58:52;;;;;;;;;;;29.60;43.20;;;;;;5096833;28;1017;-34
2022/06/27 12:01:19;;;;;;;;;;;29.60;43.10;;;;;;5097319;28;1028;-34
2022/06/27 12:04:06;;;;;;;;;;;29.80;42.50;;;;;;5097495;28;1983;-34
2022/06/27 12:06:44;;;;;;;;;;;29.90;43.50;;;;;;5096811;28;994;-35
2022/06/27 12:09:12;;;;;;;;;;;29.90;42.10;;;;;;5096242;28;940;-35
2022/06/27 12:11:54;;;;;;;;;;;29.90;42.00;;;;;;5097158;28;980;-35
2022/06/27 12:14:22;;;;;;;;;;;30.00;41.90;;;;;;5095008;28;1186;-37
2022/06/27 12:16:50;;;;;;;;;;;29.90;41.90;;;;;;5096299;28;858;-37
2022/06/27 12:19:18;;;;;;;;;;;29.80;41.90;;;;;;5097157;28;1132;-38
2022/06/27 12:21:45;;;;;;;;;;;29.80;41.10;;;;;;5096051;28;1008;-38
2022/06/27 12:24:17;;;;;;;;;;;29.80;40.40;;;;;;5096771;28;1951;-35
2022/06/27 12:26:45;;;;;;;;;;;29.70;40.20;;;;;;5098331;28;752;-35
2022/06/27 12:29:13;;;;;;;;;;;29.70;40.40;;;;;;5098593;28;968;-34
2022/06/27 12:31:40;;;;;;;;;;;29.70;40.20;;;;;;5098528;28;988;-37
2022/06/27 12:34:07;;;;;;;;;;;29.70;40.10;;;;;;5097088;28;1430;-38
2022/06/27 12:36:35;;;;;;;;;;;29.60;41.40;;;;;;5094043;28;1060;-38
2022/06/27 12:39:03;;;;;;;;;;;29.70;40.00;;;;;;5094874;28;1039;-38
2022/06/27 12:41:31;;;;;;;;;;;29.60;40.10;;;;;;5094264;28;1046;-38
2022/06/27 12:43:58;;;;;;;;;;;29.70;40.00;;;;;;5094952;28;1987;-38
2022/06/27 12:46:26;;;;;;;;;;;29.60;39.90;;;;;;5095968;28;987;-38
2022/06/27 12:48:55;;;;;;;;;;;29.60;40.20;;;;;;5095350;28;1013;-39
2022/06/27 12:51:22;;;;;;;;;;;29.70;40.30;;;;;;5096228;28;784;-38
2022/06/27 12:53:50;;;;;;;;;;;29.70;40.90;;;;;;5095618;28;1041;-38
2022/06/27 12:56:16;;;;;;;;;;;29.80;40.20;;;;;;5095257;28;960;-37
2022/06/27 12:58:45;;;;;;;;;;;29.70;39.60;;;;;;5095555;28;1506;-38
2022/06/27 13:01:12;;;;;;;;;;;29.70;39.30;;;;;;5096072;28;1074;-37
2022/06/27 13:03:41;;;;;;;;;;;29.70;39.30;;;;;;5095449;28;1955;-37
2022/06/27 13:06:08;;;;;;;;;;;29.60;39.00;;;;;;5096008;28;1016;-38
2022/06/27 13:08:36;;;;;;;;;;;29.60;39.10;;;;;;5093237;28;970;-39
2022/06/27 13:11:03;;;;;;;;;;;29.60;39.00;;;;;;5095167;28;1023;-39
2022/06/27 13:13:30;;;;;;;;;;;29.70;39.00;;;;;;5094175;28;949;-38
2022/06/27 13:15:58;;;;;;;;;;;29.60;39.00;;;;;;5093286;28;969;-39
2022/06/27 13:18:26;;;;;;;;;;;29.60;38.70;;;;;;5092616;28;999;-38
2022/06/27 13:20:53;;;;;;;;;;;29.60;38.70;;;;;;5094227;28;936;-37
2022/06/27 13:23:20;;;;;;;;;;;29.60;38.70;;;;;;5094069;28;979;-39
2022/06/27 13:25:48;;;;;;;;;;;29.70;38.90;;;;;;5094443;28;1902;-38
2022/06/27 13:28:15;;;;;;;;;;;29.60;38.50;;;;;;5096348;28;1447;-38
2022/06/27 13:30:42;;;;;;;;;;;29.60;38.00;;;;;;5096475;28;988;-39
2022/06/27 13:33:14;;;;;;;;;;;29.60;38.30;;;;;;5095878;28;1641;-39
2022/06/27 13:35:42;;;;;;;;;;;29.60;38.20;;;;;;5098321;28;976;-34
2022/06/27 13:38:09;;;;;;;;;;;29.60;37.90;;;;;;5100972;28;977;-39
2022/06/27 13:40:37;;;;;;;;;;;29.60;37.90;;;;;;5100362;28;1032;-38
2022/06/27 13:43:04;;;;;;;;;;;29.60;38.00;;;;;;5101628;28;1501;-38
2022/06/27 13:45:34;;;;;;;;;;;29.60;38.10;;;;;;5100762;28;1871;-35
2022/06/27 13:48:02;;;;;;;;;;;29.60;38.40;;;;;;5100370;28;1146;-36
2022/06/27 13:50:34;;;;;;;;;;;29.60;38.30;;;;;;5098381;28;904;-35
2022/06/27 13:53:15;;;;;;;;;;;29.60;38.60;;;;;;5098595;28;897;-39
2022/06/27 13:55:43;;;;;;;;;;;29.40;38.90;;;;;;5099055;28;988;-39
2022/06/27 13:58:13;;;;;;;;;;;29.50;38.80;;;;;;5098774;28;938;-38
2022/06/27 14:00:45;;;;;;;;;;;29.40;39.60;;;;;;5100253;28;889;-36
2022/06/27 14:03:24;;;;;;;;;;;29.50;40.10;;;;;;5100647;28;1585;-34
2022/06/27 14:07:35;;;;;;;;;;;29.50;40.20;;;;;;5100060;28;1984;-36
2022/06/27 14:08:51;;;;;;;;;;;29.50;40.30;;;;;;5086378;28;688;-35
2022/06/27 14:11:36;;;;;;;;;;;29.50;39.30;;;;;;5092375;28;2188;-35
2022/06/27 14:14:08;;;;;;;;;;;29.50;38.90;;;;;;5097699;28;1213;-35
2022/06/27 14:16:35;;;;;;;;;;;29.60;39.10;;;;;;5100061;28;1612;-36
2022/06/27 14:19:03;;;;;;;;;;;29.60;38.90;;;;;;5098823;28;1035;-38
2022/06/27 14:21:38;;;;;;;;;;;29.60;39.20;;;;;;5099716;28;1683;-35
2022/06/27 14:24:11;;;;;;;;;;;29.60;38.90;;;;;;5098167;28;1910;-37
2022/06/27 14:26:39;;;;;;;;;;;29.60;38.90;;;;;;5098842;28;1476;-38
2022/06/27 14:29:19;;;;;;;;;;;29.60;39.20;;;;;;5098328;28;1246;-38
2022/06/27 14:31:55;;;;;;;;;;;29.50;38.50;;;;;;5098703;28;1988;-38
2022/06/27 14:34:23;;;;;;;;;;;29.50;38.80;;;;;;5098098;28;877;-39
2022/06/27 14:36:54;;;;;;;;;;;29.50;39.30;;;;;;5098136;28;1575;-38
2022/06/27 14:39:34;;;;;;;;;;;29.50;39.50;;;;;;5097645;28;1301;-36
2022/06/27 14:42:02;;;;;;;;;;;29.50;39.80;;;;;;5097838;28;1112;-38
2022/06/27 14:44:29;;;;;;;;;;;29.50;40.10;;;;;;5098255;28;1981;-37
2022/06/27 14:46:56;;;;;;;;;;;29.60;40.50;;;;;;5097266;28;2435;-38
2022/06/27 14:49:23;;;;;;;;;;;29.60;40.60;;;;;;5098861;28;1014;-38
2022/06/27 14:51:52;;;;;;;;;;;29.60;40.80;;;;;;5095699;28;1036;-38
2022/06/27 14:54:20;;;;;;;;;;;29.60;40.70;;;;;;5096305;28;979;-37